Time;durP1;ratioP1;P1;durP2;ratioP2;P2;SDS_P1;SDS_P2;PMS_P1;PMS_P2;Temp;Humidity;BMP_temperature;BMP_pressure;BME280_temperature;BME280_humidity;BME280_pressure;Samples;Min_cycle;Max_cycle;Signal;HPM_P1;HPM_P2
2024/02/09 06:13:09;;;;;;;;;;;;;;;6.22;100.00;97025.31;5232581;23;19926;-81
2024/02/09 06:15:49;;;;;;;;;;;;;;;6.19;100.00;97020.31;5110766;27;19920;-85
2024/02/09 06:18:14;;;;;;;;;;;;;;;6.20;100.00;97021.97;5109989;28;20018;-84
2024/02/09 06:20:39;;;;;;;;;;;;;;;6.22;100.00;97019.22;5109796;28;20007;-84
2024/02/09 06:23:05;;;;;;;;;;;;;;;6.23;100.00;97016.50;5110181;28;19916;-84
2024/02/09 06:25:30;;;;;;;;;;;;;;;6.20;100.00;97026.41;5109969;28;20010;-84
2024/02/09 06:27:56;;;;;;;;;;;;;;;6.25;100.00;97024.28;5108429;28;19938;-83
2024/02/09 06:30:21;;;;;;;;;;;;;;;6.24;100.00;97019.97;5109827;28;19941;-81
2024/02/09 06:32:46;;;;;;;;;;;;;;;6.27;100.00;97022.38;5109548;28;19916;-84
2024/02/09 06:35:12;;;;;;;;;;;;;;;6.25;100.00;97019.84;5109644;28;19919;-83
2024/02/09 06:37:37;;;;;;;;;;;;;;;6.27;100.00;97020.63;5109683;28;19959;-83
2024/02/09 06:40:03;;;;;;;;;;;;;;;6.28;100.00;97031.97;5109567;28;20764;-84
2024/02/09 06:42:28;;;;;;;;;;;;;;;6.28;100.00;97029.34;5107548;28;19968;-83
2024/02/09 06:44:53;;;;;;;;;;;;;;;6.26;100.00;97026.81;5108531;28;19924;-83
2024/02/09 06:47:19;;;;;;;;;;;;;;;6.28;100.00;97030.16;5109457;28;20362;-84
2024/02/09 06:49:45;;;;;;;;;;;;;;;6.28;100.00;97027.53;5109348;28;19920;-84
2024/02/09 06:52:11;;;;;;;;;;;;;;;6.30;100.00;97027.44;5109173;28;20363;-84
2024/02/09 06:54:36;;;;;;;;;;;;;;;6.32;100.00;97015.03;5109090;28;19923;-84
2024/02/09 06:57:02;;;;;;;;;;;;;;;6.29;100.00;97016.06;5107846;28;19916;-85
2024/02/09 06:59:27;;;;;;;;;;;;;;;6.29;100.00;97026.59;5109102;28;20018;-83
2024/02/09 07:01:52;;;;;;;;;;;;;;;6.29;100.00;97023.13;5109114;28;19923;-84
2024/02/09 07:04:18;;;;;;;;;;;;;;;6.31;100.00;97023.88;5109097;28;20402;-84
2024/02/09 07:06:47;;;;;;;;;;;;;;;6.30;100.00;97016.91;5108993;28;19920;-84
2024/02/09 07:09:18;;;;;;;;;;;;;;;6.30;100.00;97017.78;5109069;28;20287;-84
2024/02/09 07:12:03;;;;;;;;;;;;;;;6.31;100.00;97019.44;5107636;28;19988;-84
2024/02/09 07:14:30;;;;;;;;;;;;;;;6.28;100.00;97008.28;5115925;27;19924;-84
2024/02/09 07:16:55;;;;;;;;;;;;;;;6.25;100.00;97013.75;5107482;28;19920;-84
2024/02/09 07:19:22;;;;;;;;;;;;;;;6.28;100.00;97019.66;5108595;28;19916;-83
2024/02/09 07:21:47;;;;;;;;;;;;;;;6.26;100.00;97013.66;5107353;28;19927;-83
2024/02/09 07:24:12;;;;;;;;;;;;;;;6.24;100.00;97018.19;5108761;28;19999;-84
2024/02/09 07:26:37;;;;;;;;;;;;;;;6.30;100.00;97023.03;5096245;28;20515;-83
2024/02/09 07:29:04;;;;;;;;;;;;;;;6.30;100.00;97011.66;5102332;28;19927;-85
2024/02/09 07:31:30;;;;;;;;;;;;;;;6.24;100.00;97015.56;5094902;28;20387;-83
2024/02/09 07:33:55;;;;;;;;;;;;;;;6.24;100.00;97018.19;5093479;28;19946;-86
2024/02/09 07:36:21;;;;;;;;;;;;;;;6.30;100.00;97023.03;5094958;28;19928;-84
2024/02/09 07:38:47;;;;;;;;;;;;;;;6.29;100.00;97018.72;5094036;28;19973;-84
2024/02/09 07:41:13;;;;;;;;;;;;;;;6.32;100.00;97023.75;5094827;28;20367;-84
2024/02/09 07:43:38;;;;;;;;;;;;;;;6.29;100.00;97021.34;5093428;28;19919;-83
2024/02/09 07:46:04;;;;;;;;;;;;;;;6.31;100.00;97024.69;5094553;28;19963;-82
2024/02/09 07:48:29;;;;;;;;;;;;;;;6.32;100.00;97020.28;5094635;28;19920;-84
2024/02/09 07:50:56;;;;;;;;;;;;;;;6.29;100.00;97023.13;5095076;28;19912;-84
2024/02/09 07:53:21;;;;;;;;;;;;;;;6.30;100.00;97030.06;5094606;28;19942;-84
2024/02/09 08:42:43;;;;;;;;;;;;;;;6.31;100.00;97034.38;5629305;23;19984;-82
2024/02/09 08:45:08;;;;;;;;;;;;;;;6.31;100.00;97029.97;4984112;28;19949;-82
2024/02/09 08:47:37;;;;;;;;;;;;;;;6.26;100.00;97031.25;4983340;28;19964;-82
2024/02/09 08:50:04;;;;;;;;;;;;;;;6.28;100.00;97019.66;4983238;28;20369;-83
2024/02/09 08:52:30;;;;;;;;;;;;;;;6.29;100.00;97023.13;4984492;28;20361;-81
2024/02/09 08:54:55;;;;;;;;;;;;;;;6.29;100.00;97015.25;4984080;28;19963;-82
2024/02/09 08:57:20;;;;;;;;;;;;;;;6.28;100.00;97022.28;4982550;28;20301;-83
2024/02/09 08:59:46;;;;;;;;;;;;;;;6.33;100.00;97016.69;4983942;28;20116;-83
2024/02/09 09:02:11;;;;;;;;;;;;;;;6.28;100.00;97018.81;4984325;28;20036;-82
2024/02/09 09:04:37;;;;;;;;;;;;;;;6.31;100.00;97013.34;4984152;28;20009;-82
2024/02/09 09:07:02;;;;;;;;;;;;;;;6.27;100.00;97015.34;4982771;28;19922;-83
2024/02/09 09:09:27;;;;;;;;;;;;;;;6.34;100.00;97018.41;4983886;28;19929;-82
2024/02/09 09:11:55;;;;;;;;;;;;;;;6.32;100.00;97017.66;4981205;28;20205;-82
2024/02/09 09:14:21;;;;;;;;;;;;;;;6.33;100.00;97017.56;4983940;28;19972;-84
2024/02/09 09:16:46;;;;;;;;;;;;;;;6.36;100.00;97022.56;4984029;28;19924;-83
2024/02/09 09:19:12;;;;;;;;;;;;;;;6.35;100.00;97010.41;4983513;28;19914;-84
2024/02/09 09:21:40;;;;;;;;;;;;;;;6.38;100.00;97014.59;4983610;28;19925;-82
2024/02/09 09:24:08;;;;;;;;;;;;;;;6.32;100.00;97005.34;4982679;28;19929;-87
2024/02/09 09:26:33;;;;;;;;;;;;;;;6.35;100.00;97015.66;4981280;28;19918;-83
2024/02/09 09:28:59;;;;;;;;;;;;;;;6.40;100.00;97014.47;4983183;28;19922;-83
2024/02/09 09:31:26;;;;;;;;;;;;;;;6.40;100.00;97007.44;4983832;28;19913;-81
2024/02/09 09:33:54;;;;;;;;;;;;;;;6.39;100.00;97005.75;4983345;28;19918;-84
2024/02/09 09:36:19;;;;;;;;;;;;;;;6.41;100.00;97003.03;4983316;28;19925;-83
2024/02/09 09:38:45;;;;;;;;;;;;;;;6.43;100.00;97006.38;4982391;28;19914;-87
2024/02/09 09:41:10;;;;;;;;;;;;;;;6.36;100.00;97006.78;4981871;28;19925;-86
2024/02/09 09:43:37;;;;;;;;;;;;;;;6.40;100.00;97006.59;4982297;28;19922;-84
2024/02/09 09:46:02;;;;;;;;;;;;;;;6.41;100.00;97003.84;4983195;28;19973;-83
2024/02/09 09:48:28;;;;;;;;;;;;;;;6.44;100.00;97016.78;4982939;28;19926;-82
2024/02/09 09:50:54;;;;;;;;;;;;;;;6.46;100.00;97008.78;4983362;28;19928;-83
2024/02/09 09:53:27;;;;;;;;;;;;;;;6.44;100.00;97011.53;4981995;28;19921;-83
2024/02/09 09:55:53;;;;;;;;;;;;;;;6.44;100.00;97015.97;4983238;28;19996;-84
2024/02/09 09:58:19;;;;;;;;;;;;;;;6.47;100.00;97008.69;4982000;28;20020;-85
2024/02/09 10:00:46;;;;;;;;;;;;;;;6.41;100.00;97009.09;4982988;28;20469;-85
2024/02/09 10:03:11;;;;;;;;;;;;;;;6.48;100.00;97017.44;4983067;28;19925;-88
2024/02/09 10:05:36;;;;;;;;;;;;;;;6.40;100.00;97009.22;4981597;28;20025;-85
2024/02/09 10:08:02;;;;;;;;;;;;;;;6.44;100.00;97013.31;4982676;28;19918;-84
2024/02/09 10:10:28;;;;;;;;;;;;;;;6.44;100.00;97008.06;4983350;28;19918;-85
2024/02/09 10:13:11;;;;;;;;;;;;;;;6.44;100.00;97010.69;4981544;28;20340;-85
2024/02/09 10:15:41;;;;;;;;;;;;;;;6.44;100.00;97014.16;4983214;28;19924;-85
2024/02/09 10:18:10;;;;;;;;;;;;;;;6.53;100.00;97025.84;4983028;28;19918;-85
2024/02/09 10:20:35;;;;;;;;;;;;;;;6.50;100.00;97018.16;4982944;28;19914;-83
2024/02/09 10:23:03;;;;;;;;;;;;;;;6.50;100.00;97007.63;4982760;28;19922;-84
2024/02/09 10:25:29;;;;;;;;;;;;;;;6.49;100.00;97011.22;4980423;28;19918;-85
2024/02/09 10:27:54;;;;;;;;;;;;;;;6.51;100.00;97004.91;4981512;28;19919;-84
2024/02/09 10:30:20;;;;;;;;;;;;;;;6.56;100.00;97012.47;4982600;28;19922;-84
2024/02/09 10:32:45;;;;;;;;;;;;;;;6.60;100.00;97003.41;4982616;28;19973;-85
2024/02/09 10:35:10;;;;;;;;;;;;;;;6.61;100.00;97023.50;4981254;28;20594;-84
2024/02/09 10:37:37;;;;;;;;;;;;;;;6.55;100.00;97018.66;4982762;28;20396;-83
2024/02/09 10:40:05;;;;;;;;;;;;;;;6.55;100.00;97018.66;4982921;28;19918;-85
2024/02/09 10:42:31;;;;;;;;;;;;;;;6.51;100.00;97019.81;4980454;28;20020;-85
2024/02/09 10:44:57;;;;;;;;;;;;;;;6.55;100.00;97016.03;4982560;28;20000;-85
2024/02/09 10:47:26;;;;;;;;;;;;;;;6.53;100.00;97020.56;4982811;28;20025;-83
2024/02/09 10:49:52;;;;;;;;;;;;;;;6.53;100.00;97012.69;4981742;28;19922;-83
2024/02/09 10:52:18;;;;;;;;;;;;;;;6.56;100.00;97020.38;4982701;28;19917;-83
2024/02/09 10:54:47;;;;;;;;;;;;;;;6.53;100.00;97017.94;4982753;28;19980;-83
2024/02/09 10:57:13;;;;;;;;;;;;;;;6.56;100.00;97023.00;4980549;28;19953;-83
2024/02/09 10:59:40;;;;;;;;;;;;;;;6.54;100.00;97022.25;4982805;28;20411;-83
2024/02/09 11:02:07;;;;;;;;;;;;;;;6.54;100.00;97019.59;4985805;28;19918;-84
2024/02/09 11:04:33;;;;;;;;;;;;;;;6.54;100.00;97019.59;4985214;28;19921;-83
2024/02/09 11:06:58;;;;;;;;;;;;;;;6.50;100.00;97019.00;4986072;28;19925;-84
2024/02/09 11:09:24;;;;;;;;;;;;;;;6.57;100.00;97006.25;4985934;28;19926;-83
2024/02/09 11:11:49;;;;;;;;;;;;;;;6.51;100.00;97001.41;4985060;28;19918;-83
2024/02/09 11:14:18;;;;;;;;;;;;;;;6.53;100.00;97010.06;4985993;28;19918;-83
2024/02/09 11:16:44;;;;;;;;;;;;;;;6.54;100.00;97009.94;4983453;28;20534;-86
2024/02/09 11:19:11;;;;;;;;;;;;;;;6.48;100.00;97004.28;4985392;28;19996;-84
2024/02/09 11:21:36;;;;;;;;;;;;;;;6.53;100.00;97013.50;4986161;28;19961;-83
2024/02/09 11:24:01;;;;;;;;;;;;;;;6.55;100.00;96995.00;4985476;28;19972;-83
2024/02/09 11:26:35;;;;;;;;;;;;;;;6.52;100.00;97008.38;4985538;28;20285;-84
2024/02/09 11:29:00;;;;;;;;;;;;;;;6.49;100.00;97003.31;4984810;28;19941;-84
2024/02/09 11:31:27;;;;;;;;;;;;;;;6.53;100.00;96996.91;4985755;28;19922;-84
2024/02/09 11:33:53;;;;;;;;;;;;;;;6.54;100.00;96998.56;4985690;28;19925;-84
2024/02/09 11:36:20;;;;;;;;;;;;;;;6.53;100.00;97002.16;4985726;28;19922;-83
2024/02/09 11:38:45;;;;;;;;;;;;;;;6.56;100.00;96988.78;4985510;28;20315;-87
2024/02/09 11:41:11;;;;;;;;;;;;;;;6.54;100.00;96981.00;4985596;28;19918;-84
2024/02/09 11:43:36;;;;;;;;;;;;;;;6.54;100.00;96974.88;4984091;28;19932;-84
2024/02/09 11:46:02;;;;;;;;;;;;;;;6.58;100.00;96972.91;4985398;28;20291;-84
2024/02/09 11:48:28;;;;;;;;;;;;;;;6.58;100.00;96963.22;4985211;28;19993;-84
2024/02/09 11:50:57;;;;;;;;;;;;;;;6.54;100.00;96961.72;4985785;28;20008;-84
2024/02/09 11:53:22;;;;;;;;;;;;;;;6.54;100.00;96957.34;4985169;28;19918;-85
2024/02/09 11:55:47;;;;;;;;;;;;;;;6.60;100.00;96965.72;4983778;28;19973;-85
2024/02/09 11:58:13;;;;;;;;;;;;;;;6.59;100.00;96962.28;4984399;28;19921;-83
2024/02/09 12:00:38;;;;;;;;;;;;;;;6.55;100.00;96961.63;4985384;28;19918;-83
2024/02/09 12:03:03;;;;;;;;;;;;;;;6.51;100.00;96972.47;4984939;28;19926;-84
2024/02/09 12:05:29;;;;;;;;;;;;;;;6.53;100.00;96971.44;4984845;28;20013;-83
2024/02/09 12:07:54;;;;;;;;;;;;;;;6.53;100.00;96966.16;4985242;28;19924;-84
2024/02/09 12:10:20;;;;;;;;;;;;;;;6.53;100.00;96963.53;4985202;28;19922;-84
2024/02/09 12:12:47;;;;;;;;;;;;;;;6.54;100.00;96961.72;4983370;28;19918;-84
2024/02/09 12:15:12;;;;;;;;;;;;;;;6.50;100.00;96965.56;4984845;28;20355;-83
2024/02/09 12:17:37;;;;;;;;;;;;;;;6.51;100.00;96954.91;4985215;28;20016;-83
2024/02/09 12:20:10;;;;;;;;;;;;;;;6.54;100.00;96956.47;4984640;28;19976;-84
2024/02/09 12:22:37;;;;;;;;;;;;;;;6.50;100.00;96960.28;4985295;28;19922;-84
2024/02/09 12:25:05;;;;;;;;;;;;;;;6.50;100.00;96966.38;4984786;28;20012;-83
2024/02/09 12:27:31;;;;;;;;;;;;;;;6.50;100.00;96973.44;4983142;28;19922;-84
2024/02/09 12:29:56;;;;;;;;;;;;;;;6.49;100.00;96969.13;4985043;28;20392;-85
2024/02/09 12:32:21;;;;;;;;;;;;;;;6.46;100.00;96974.59;4984845;28;19972;-84
2024/02/09 12:34:47;;;;;;;;;;;;;;;6.50;100.00;96971.63;4984518;28;19918;-84
2024/02/09 12:37:16;;;;;;;;;;;;;;;6.48;100.00;96968.28;4984372;28;19972;-83
2024/02/09 12:39:46;;;;;;;;;;;;;;;6.52;100.00;96963.63;4984825;28;19961;-84
2024/02/09 12:42:11;;;;;;;;;;;;;;;6.50;100.00;96965.56;4982561;28;19925;-84
2024/02/09 12:44:49;;;;;;;;;;;;;;;6.49;100.00;96963.84;4984215;28;19921;-84
2024/02/09 12:47:14;;;;;;;;;;;;;;;6.42;100.00;96962.63;4984208;28;19921;-84
2024/02/09 12:49:39;;;;;;;;;;;;;;;6.48;100.00;96970.09;4984851;28;19929;-84
2024/02/09 12:52:08;;;;;;;;;;;;;;;6.43;100.00;96959.03;4984280;28;19918;-83
2024/02/09 12:54:33;;;;;;;;;;;;;;;6.52;100.00;96953.13;4983874;28;20354;-84
2024/02/09 12:56:59;;;;;;;;;;;;;;;6.46;100.00;96962.31;4983097;28;19928;-85
2024/02/09 12:59:25;;;;;;;;;;;;;;;6.43;100.00;96948.50;4982792;28;19918;-85
2024/02/09 13:01:51;;;;;;;;;;;;;;;6.47;100.00;96949.97;4983898;28;20518;-84
2024/02/09 13:04:16;;;;;;;;;;;;;;;6.46;100.00;96949.16;4983862;28;20265;-85
2024/02/09 13:06:41;;;;;;;;;;;;;;;6.50;100.00;96944.50;4983520;28;20076;-84
2024/02/09 13:09:06;;;;;;;;;;;;;;;6.51;100.00;96943.53;4984004;28;20357;-84
2024/02/09 13:11:32;;;;;;;;;;;;;;;6.50;100.00;96945.34;4984119;28;19965;-83
2024/02/09 13:13:59;;;;;;;;;;;;;;;6.49;100.00;96937.56;4981042;28;19922;-84
2024/02/09 13:16:25;;;;;;;;;;;;;;;6.49;100.00;96938.41;4983837;28;20353;-84
2024/02/09 13:18:54;;;;;;;;;;;;;;;6.48;100.00;96931.47;4984219;28;19968;-85
2024/02/09 13:21:20;;;;;;;;;;;;;;;6.48;100.00;96939.34;4982342;28;19922;-84
2024/02/09 13:23:46;;;;;;;;;;;;;;;6.49;100.00;96935.78;4981683;28;19937;-84
2024/02/09 13:26:15;;;;;;;;;;;;;;;6.50;100.00;96934.81;4983319;28;19918;-84
2024/02/09 13:28:40;;;;;;;;;;;;;;;6.46;100.00;96921.97;4979896;28;19922;-83
2024/02/09 13:31:09;;;;;;;;;;;;;;;6.50;100.00;96915.56;4983677;28;20376;-84
2024/02/09 13:33:34;;;;;;;;;;;;;;;6.48;100.00;96913.03;4983160;28;20020;-86
2024/02/09 13:35:59;;;;;;;;;;;;;;;6.46;100.00;96919.34;4983463;28;20020;-83
2024/02/09 13:38:24;;;;;;;;;;;;;;;6.46;100.00;96907.06;4983437;28;19967;-83
2024/02/09 13:40:50;;;;;;;;;;;;;;;6.44;100.00;96918.63;4983170;28;19918;-85
2024/02/09 13:43:15;;;;;;;;;;;;;;;6.49;100.00;96912.09;4982002;28;19925;-85
2024/02/09 13:45:40;;;;;;;;;;;;;;;6.46;100.00;96906.19;4983296;28;19929;-86
2024/02/09 13:48:06;;;;;;;;;;;;;;;6.46;100.00;96911.47;4983405;28;20370;-86
2024/02/09 13:50:31;;;;;;;;;;;;;;;6.44;100.00;96913.38;4983402;28;19918;-89
2024/02/09 13:52:56;;;;;;;;;;;;;;;6.40;100.00;96904.88;4983425;28;19917;-85
2024/02/09 13:55:22;;;;;;;;;;;;;;;6.45;100.00;96905.38;4982922;28;19926;-84
2024/02/09 13:57:49;;;;;;;;;;;;;;;6.45;100.00;96901.91;4981680;28;20104;-84
2024/02/09 14:00:18;;;;;;;;;;;;;;;6.43;100.00;96903.78;4982173;28;19917;-84
2024/02/09 14:02:46;;;;;;;;;;;;;;;6.42;100.00;96904.75;4981822;28;19970;-84
2024/02/09 14:05:11;;;;;;;;;;;;;;;6.44;100.00;96901.06;4982917;28;19949;-85
2024/02/09 14:07:38;;;;;;;;;;;;;;;6.40;100.00;96888.22;4981745;28;20004;-86
2024/02/09 14:10:04;;;;;;;;;;;;;;;6.45;100.00;96894.03;4981835;28;19929;-87
2024/02/09 14:12:30;;;;;;;;;;;;;;;6.40;100.00;96890.84;4978529;28;20349;-86
2024/02/09 14:14:55;;;;;;;;;;;;;;;6.40;100.00;96886.47;4981190;28;19917;-89
2024/02/09 14:17:20;;;;;;;;;;;;;;;6.44;100.00;96887.06;4982117;28;19918;-85
2024/02/09 14:19:46;;;;;;;;;;;;;;;6.41;100.00;96882.03;4980824;28;19918;-86
2024/02/09 14:22:12;;;;;;;;;;;;;;;6.41;100.00;96882.03;4982786;28;19952;-86
2024/02/09 14:24:38;;;;;;;;;;;;;;;6.41;100.00;96884.66;4981351;28;19969;-85
2024/02/09 14:27:06;;;;;;;;;;;;;;;6.43;100.00;96872.22;4981370;28;19918;-86
2024/02/09 14:29:31;;;;;;;;;;;;;;;6.41;100.00;96874.97;4981585;28;19981;-85
2024/02/09 14:31:57;;;;;;;;;;;;;;;6.34;100.00;96882.47;4983133;28;19922;-83
2024/02/09 14:34:22;;;;;;;;;;;;;;;6.39;100.00;96879.50;4981593;28;19922;-86
2024/02/09 14:36:48;;;;;;;;;;;;;;;6.33;100.00;96878.19;4985864;28;19961;-84
2024/02/09 14:39:14;;;;;;;;;;;;;;;6.37;100.00;96876.16;4983430;28;19933;-89
2024/02/09 14:41:39;;;;;;;;;;;;;;;6.36;100.00;96880.56;4986541;28;20021;-85
2024/02/09 14:44:05;;;;;;;;;;;;;;;6.35;100.00;96883.28;4985283;28;19925;-84
2024/02/09 14:46:30;;;;;;;;;;;;;;;6.40;100.00;96880.34;4986626;28;19922;-84
2024/02/09 14:48:55;;;;;;;;;;;;;;;6.38;100.00;96877.81;4986452;28;19918;-86
2024/02/09 14:51:21;;;;;;;;;;;;;;;6.35;100.00;96878.03;4986480;28;19918;-85
2024/02/09 14:53:47;;;;;;;;;;;;;;;6.39;100.00;96878.69;4986476;28;19944;-86
2024/02/09 14:56:14;;;;;;;;;;;;;;;6.43;100.00;96872.22;4986501;28;20336;-86
2024/02/09 14:58:40;;;;;;;;;;;;;;;6.39;100.00;96874.25;4984195;28;20012;-85
2024/02/09 15:01:05;;;;;;;;;;;;;;;6.38;100.00;96872.56;4968628;28;20012;-86
2024/02/09 15:03:37;;;;;;;;;;;;;;;6.38;100.00;96867.28;4986384;28;19972;-85
2024/02/09 15:06:02;;;;;;;;;;;;;;;6.36;100.00;96864.78;4984619;28;20330;-86
2024/02/09 15:08:30;;;;;;;;;;;;;;;6.38;100.00;96869.94;4986365;28;20020;-85
2024/02/09 15:10:55;;;;;;;;;;;;;;;6.38;100.00;96869.09;4986044;28;20278;-84
2024/02/09 15:13:26;;;;;;;;;;;;;;;6.40;100.00;96856.66;4985446;28;19922;-84
2024/02/09 15:15:54;;;;;;;;;;;;;;;6.39;100.00;96870.78;4984361;28;20065;-87
2024/02/09 15:18:19;;;;;;;;;;;;;;;6.43;100.00;96859.94;4984821;28;19918;-86
2024/02/09 15:20:47;;;;;;;;;;;;;;;6.39;100.00;96868.16;4984625;28;19964;-85
2024/02/09 15:23:12;;;;;;;;;;;;;;;6.38;100.00;96863.84;4984922;28;19922;-85
2024/02/09 15:25:38;;;;;;;;;;;;;;;6.36;100.00;96864.78;4985594;28;20380;-85
2024/02/09 15:28:03;;;;;;;;;;;;;;;6.36;100.00;96862.16;4984635;28;19928;-86
2024/02/09 15:30:28;;;;;;;;;;;;;;;6.37;100.00;96849.84;4985433;28;20322;-83
2024/02/09 15:32:54;;;;;;;;;;;;;;;6.41;100.00;96853.09;4985452;28;20009;-84
2024/02/09 15:35:19;;;;;;;;;;;;;;;6.35;100.00;96852.59;4985773;28;19969;-85
2024/02/09 15:37:45;;;;;;;;;;;;;;;6.41;100.00;96847.84;4985469;28;20020;-86
2024/02/09 15:40:10;;;;;;;;;;;;;;;6.39;100.00;96847.13;4985204;28;19914;-87
2024/02/09 15:42:35;;;;;;;;;;;;;;;6.35;100.00;96839.44;4982494;28;19921;-86
2024/02/09 15:45:01;;;;;;;;;;;;;;;6.33;100.00;96838.72;4985650;28;20037;-88
2024/02/09 15:47:26;;;;;;;;;;;;;;;6.35;100.00;96831.56;4985097;28;19965;-86
2024/02/09 15:49:52;;;;;;;;;;;;;;;6.34;100.00;96829.88;4983812;28;19973;-86
2024/02/09 15:52:17;;;;;;;;;;;;;;;6.39;100.00;96836.59;4984076;28;19949;-85
2024/02/09 15:54:43;;;;;;;;;;;;;;;6.35;100.00;96830.69;4985561;28;20382;-85
2024/02/09 15:57:08;;;;;;;;;;;;;;;6.34;100.00;96827.25;4984046;28;19993;-86
2024/02/09 15:59:34;;;;;;;;;;;;;;;6.34;100.00;96829.88;4984950;28;19922;-87
2024/02/09 16:01:59;;;;;;;;;;;;;;;6.33;100.00;96829.97;4983846;28;20000;-87
2024/02/09 16:04:25;;;;;;;;;;;;;;;6.32;100.00;96830.94;4985109;28;20338;-85
2024/02/09 16:06:50;;;;;;;;;;;;;;;6.32;100.00;96828.31;4985070;28;19929;-86
2024/02/09 16:09:17;;;;;;;;;;;;;;;6.34;100.00;96827.25;4985233;28;19922;-85
2024/02/09 16:11:46;;;;;;;;;;;;;;;6.32;100.00;96842.28;4983021;28;19914;-89
2024/02/09 16:14:11;;;;;;;;;;;;;;;6.34;100.00;96842.19;4983592;28;19925;-86
2024/02/09 16:16:37;;;;;;;;;;;;;;;6.32;100.00;96839.66;4985070;28;20373;-85
2024/02/09 16:19:02;;;;;;;;;;;;;;;6.31;100.00;96834.53;4984726;28;20002;-83
2024/02/09 16:21:32;;;;;;;;;;;;;;;6.33;100.00;96832.59;4984567;28;19986;-86
2024/02/09 16:23:59;;;;;;;;;;;;;;;6.34;100.00;96839.56;4982915;28;19918;-87
2024/02/09 16:26:24;;;;;;;;;;;;;;;6.35;100.00;96836.81;4983422;28;20016;-87
2024/02/09 16:28:52;;;;;;;;;;;;;;;6.32;100.00;96837.03;4981929;28;19973;-89
2024/02/09 16:31:17;;;;;;;;;;;;;;;6.33;100.00;96844.00;4984885;28;19929;-87
2024/02/09 16:33:44;;;;;;;;;;;;;;;6.34;100.00;96839.56;4984327;28;19922;-92
2024/02/09 16:36:09;;;;;;;;;;;;;;;6.35;100.00;96842.09;4984238;28;20045;-86
2024/02/09 16:38:37;;;;;;;;;;;;;;;6.35;100.00;96841.22;4984712;28;20004;-86
2024/02/09 16:41:13;;;;;;;;;;;;;;;6.34;100.00;96839.56;4984405;28;19918;-86
2024/02/09 16:43:38;;;;;;;;;;;;;;;6.36;100.00;96837.66;4980848;28;19926;-86
2024/02/09 16:46:05;;;;;;;;;;;;;;;6.32;100.00;96841.47;4984479;28;19944;-86
2024/02/09 16:48:30;;;;;;;;;;;;;;;6.33;100.00;96838.72;4984679;28;19913;-86
2024/02/09 16:50:57;;;;;;;;;;;;;;;6.32;100.00;96844.09;4982982;28;20033;-87
2024/02/09 16:53:23;;;;;;;;;;;;;;;6.39;100.00;96839.22;4984206;28;20016;-86
2024/02/09 16:55:48;;;;;;;;;;;;;;;6.36;100.00;96848.16;4982950;28;20422;-86
2024/02/09 16:58:16;;;;;;;;;;;;;;;6.35;100.00;96847.34;4982041;28;19929;-91
2024/02/09 17:00:44;;;;;;;;;;;;;;;6.43;100.00;96852.03;4984085;28;19925;-89
2024/02/09 17:03:12;;;;;;;;;;;;;;;6.45;100.00;96851.94;4983292;28;20016;-88
2024/02/09 17:05:37;;;;;;;;;;;;;;;6.46;100.00;96845.72;4983068;28;20471;-88
2024/02/09 17:08:03;;;;;;;;;;;;;;;6.41;100.00;96845.22;4983861;28;19922;-86
2024/02/09 17:10:28;;;;;;;;;;;;;;;6.40;100.00;96849.63;4983547;28;19922;-88
2024/02/09 17:12:54;;;;;;;;;;;;;;;6.43;100.00;96859.94;4983004;28;19928;-86
2024/02/09 17:15:19;;;;;;;;;;;;;;;6.35;100.00;96855.22;4984261;28;19928;-88
2024/02/09 17:17:45;;;;;;;;;;;;;;;6.37;100.00;96855.13;4984075;28;19918;-86
2024/02/09 17:20:10;;;;;;;;;;;;;;;6.40;100.00;96860.16;4983455;28;20293;-88
2024/02/09 17:22:35;;;;;;;;;;;;;;;6.35;100.00;96864.88;4983672;28;19918;-86
2024/02/09 17:25:16;;;;;;;;;;;;;;;6.41;100.00;96867.06;4982458;28;19922;-87
2024/02/09 17:27:41;;;;;;;;;;;;;;;6.43;100.00;96848.56;4981413;28;20482;-82
2024/02/09 17:30:07;;;;;;;;;;;;;;;6.40;100.00;96859.28;4983609;28;20356;-86
2024/02/09 17:32:32;;;;;;;;;;;;;;;6.44;100.00;96858.13;4983612;28;19922;-84
2024/02/09 17:34:57;;;;;;;;;;;;;;;6.43;100.00;96861.72;4983211;28;19922;-82
2024/02/09 17:37:22;;;;;;;;;;;;;;;6.48;100.00;96862.25;4983313;28;20009;-82
2024/02/09 17:39:48;;;;;;;;;;;;;;;6.46;100.00;96875.50;4983577;28;19965;-89
2024/02/09 17:42:14;;;;;;;;;;;;;;;6.46;100.00;96866.75;4982311;28;19921;-84
2024/02/09 17:44:39;;;;;;;;;;;;;;;6.48;100.00;96873.59;4983031;28;20325;-82
2024/02/09 17:47:04;;;;;;;;;;;;;;;6.46;100.00;96874.63;4983001;28;19925;-89
2024/02/09 17:49:34;;;;;;;;;;;;;;;6.48;100.00;96870.13;4983778;28;19917;-84
2024/02/09 17:52:01;;;;;;;;;;;;;;;6.46;100.00;96874.63;4983074;28;19929;-84
2024/02/09 17:54:26;;;;;;;;;;;;;;;6.46;100.00;96864.97;4983048;28;20028;-84
2024/02/09 17:56:51;;;;;;;;;;;;;;;6.47;100.00;96878.97;4982181;28;20021;-84
2024/02/09 17:59:17;;;;;;;;;;;;;;;6.48;100.00;96872.75;4983243;28;19918;-86
2024/02/09 18:01:43;;;;;;;;;;;;;;;6.47;100.00;96873.69;4982777;28;20433;-81
2024/02/09 18:04:08;;;;;;;;;;;;;;;6.48;100.00;96875.38;4983040;28;19929;-83
2024/02/09 18:06:34;;;;;;;;;;;;;;;6.47;100.00;96876.31;4982932;28;20304;-82
2024/02/09 18:08:59;;;;;;;;;;;;;;;6.46;100.00;96885.16;4981269;28;20300;-80
2024/02/09 18:11:24;;;;;;;;;;;;;;;6.52;100.00;96885.56;4982510;28;19925;-84
2024/02/09 18:13:50;;;;;;;;;;;;;;;6.48;100.00;96888.53;4979256;28;19925;-86
2024/02/09 18:16:15;;;;;;;;;;;;;;;6.47;100.00;96882.41;4981207;28;19926;-86
2024/02/09 18:18:41;;;;;;;;;;;;;;;6.41;100.00;96877.59;4981615;28;19918;-86
2024/02/09 18:21:06;;;;;;;;;;;;;;;6.47;100.00;96887.69;4983523;28;19941;-86
2024/02/09 18:23:32;;;;;;;;;;;;;;;6.43;100.00;96888.00;4982863;28;20004;-83
2024/02/09 18:25:57;;;;;;;;;;;;;;;6.45;100.00;96886.13;4982768;28;19918;-81
2024/02/09 18:28:22;;;;;;;;;;;;;;;6.46;100.00;96885.16;4982040;28;19922;-82
2024/02/09 18:30:47;;;;;;;;;;;;;;;6.46;100.00;96887.78;4982988;28;19926;-84
2024/02/09 18:33:13;;;;;;;;;;;;;;;6.48;100.00;96886.75;4982321;28;20306;-82
2024/02/09 18:35:39;;;;;;;;;;;;;;;6.40;100.00;96885.59;4980749;28;19969;-84
2024/02/09 18:38:04;;;;;;;;;;;;;;;6.46;100.00;96880.75;4983199;28;19922;-83
2024/02/09 18:40:30;;;;;;;;;;;;;;;6.46;100.00;96888.66;4981806;28;19917;-82
2024/02/09 18:42:55;;;;;;;;;;;;;;;6.45;100.00;96883.50;4979964;28;20320;-84
2024/02/09 18:45:21;;;;;;;;;;;;;;;6.45;100.00;96878.25;4981218;28;19918;-84
2024/02/09 18:47:46;;;;;;;;;;;;;;;6.47;100.00;96877.16;4982351;28;19921;-84
2024/02/09 18:50:13;;;;;;;;;;;;;;;6.39;100.00;96874.25;4982680;28;19932;-86
2024/02/09 18:52:42;;;;;;;;;;;;;;;6.44;100.00;96879.19;4981714;28;19922;-86
2024/02/09 18:55:08;;;;;;;;;;;;;;;6.39;100.00;96873.41;4981262;28;20305;-83
2024/02/09 18:57:33;;;;;;;;;;;;;;;6.42;100.00;96870.56;4980516;28;19922;-83
2024/02/09 18:59:58;;;;;;;;;;;;;;;6.41;100.00;96871.50;4982216;28;20366;-84
2024/02/09 19:02:23;;;;;;;;;;;;;;;6.40;100.00;96873.31;4979631;28;19933;-87
2024/02/09 19:04:49;;;;;;;;;;;;;;;6.43;100.00;96877.50;4980413;28;19925;-83
2024/02/09 19:07:14;;;;;;;;;;;;;;;6.43;100.00;96878.34;4981397;28;19929;-89
2024/02/09 19:09:41;;;;;;;;;;;;;;;6.40;100.00;96865.41;4980675;28;19976;-80
2024/02/09 19:12:06;;;;;;;;;;;;;;;6.36;100.00;96864.78;4980041;28;20740;-83
2024/02/09 19:14:34;;;;;;;;;;;;;;;6.40;100.00;96865.41;4982190;28;19921;-89
2024/02/09 19:16:59;;;;;;;;;;;;;;;6.40;100.00;96864.56;4979524;28;20012;-87
2024/02/09 19:19:26;;;;;;;;;;;;;;;6.36;100.00;96866.56;4982335;28;20374;-86
2024/02/09 19:21:52;;;;;;;;;;;;;;;6.38;100.00;96862.03;4981954;28;19929;-88
2024/02/09 19:24:18;;;;;;;;;;;;;;;6.44;100.00;96861.59;4983557;28;19922;-83
2024/02/09 19:26:44;;;;;;;;;;;;;;;6.46;100.00;96853.59;4985906;28;19922;-85
2024/02/09 19:29:10;;;;;;;;;;;;;;;6.43;100.00;96854.69;4984562;28;19984;-82
2024/02/09 19:31:35;;;;;;;;;;;;;;;6.43;100.00;96851.19;4985685;28;19944;-85
2024/02/09 19:34:02;;;;;;;;;;;;;;;6.44;100.00;96845.00;4984726;28;20278;-87
2024/02/09 19:36:28;;;;;;;;;;;;;;;6.39;100.00;96842.69;4982130;28;19925;-84
2024/02/09 19:38:54;;;;;;;;;;;;;;;6.40;100.00;96843.50;4983134;28;19949;-83
2024/02/09 19:41:22;;;;;;;;;;;;;;;6.41;100.00;96845.22;4984434;28;19973;-82